sensor_id;sensor_type;location;lat;lon;timestamp;temperature;humidity
65637;DHT22;52327;42.622;23.316;2022-09-03T00:01:31;15.54;83.98
65637;DHT22;52327;42.622;23.316;2022-09-03T00:05:05;15.54;83.94
65637;DHT22;52327;42.622;23.316;2022-09-03T00:07:10;15.54;84.03
65637;DHT22;52327;42.622;23.316;2022-09-03T00:09:42;15.52;83.85
65637;DHT22;52327;42.622;23.316;2022-09-03T00:12:15;15.49;84.04
65637;DHT22;52327;42.622;23.316;2022-09-03T00:14:53;15.46;84.03
65637;DHT22;52327;42.622;23.316;2022-09-03T00:17:26;15.44;84.21
65637;DHT22;52327;42.622;23.316;2022-09-03T00:20:03;15.38;84.08
65637;DHT22;52327;42.622;23.316;2022-09-03T00:22:39;15.42;84.04
65637;DHT22;52327;42.622;23.316;2022-09-03T00:25:09;15.44;84.00
65637;DHT22;52327;42.622;23.316;2022-09-03T00:27:39;15.50;83.92
65637;DHT22;52327;42.622;23.316;2022-09-03T00:30:10;15.56;83.96
65637;DHT22;52327;42.622;23.316;2022-09-03T00:35:19;15.84;82.50
65637;DHT22;52327;42.622;23.316;2022-09-03T00:37:47;15.82;82.74
65637;DHT22;52327;42.622;23.316;2022-09-03T00:40:42;15.79;82.20
65637;DHT22;52327;42.622;23.316;2022-09-03T00:46:21;15.84;82.24
65637;DHT22;52327;42.622;23.316;2022-09-03T00:49:24;15.77;82.73
65637;DHT22;52327;42.622;23.316;2022-09-03T00:54:38;15.56;83.36
65637;DHT22;52327;42.622;23.316;2022-09-03T01:27:59;15.32;83.81
65637;DHT22;52327;42.622;23.316;2022-09-03T01:30:26;15.29;84.34
65637;DHT22;52327;42.622;23.316;2022-09-03T01:35:53;15.28;84.58
65637;DHT22;52327;42.622;23.316;2022-09-03T01:38:48;15.21;84.15
65637;DHT22;52327;42.622;23.316;2022-09-03T01:44:44;15.15;84.22
65637;DHT22;52327;42.622;23.316;2022-09-03T01:47:21;15.16;84.22
65637;DHT22;52327;42.622;23.316;2022-09-03T01:49:57;15.22;84.07
65637;DHT22;52327;42.622;23.316;2022-09-03T01:52:37;15.22;83.92
65637;DHT22;52327;42.622;23.316;2022-09-03T02:00:28;15.32;83.82
65637;DHT22;52327;42.622;23.316;2022-09-03T02:03:01;15.36;83.45
65637;DHT22;52327;42.622;23.316;2022-09-03T02:05:30;15.42;83.48
65637;DHT22;52327;42.622;23.316;2022-09-03T02:07:59;15.44;83.07
65637;DHT22;52327;42.622;23.316;2022-09-03T02:10:49;15.47;82.60
65637;DHT22;52327;42.622;23.316;2022-09-03T02:13:19;15.54;82.38
65637;DHT22;52327;42.622;23.316;2022-09-03T02:15:46;15.43;82.39
65637;DHT22;52327;42.622;23.316;2022-09-03T02:18:17;15.56;82.53
65637;DHT22;52327;42.622;23.316;2022-09-03T02:20:44;15.57;81.92
65637;DHT22;52327;42.622;23.316;2022-09-03T02:23:12;15.67;81.83
65637;DHT22;52327;42.622;23.316;2022-09-03T02:25:41;15.52;81.90
65637;DHT22;52327;42.622;23.316;2022-09-03T02:28:07;15.36;82.19
65637;DHT22;52327;42.622;23.316;2022-09-03T02:30:34;15.42;82.62
65637;DHT22;52327;42.622;23.316;2022-09-03T02:32:59;15.33;82.54
65637;DHT22;52327;42.622;23.316;2022-09-03T02:35:25;15.26;82.93
65637;DHT22;52327;42.622;23.316;2022-09-03T02:37:51;15.29;83.07
65637;DHT22;52327;42.622;23.316;2022-09-03T02:40:16;15.33;82.87
65637;DHT22;52327;42.622;23.316;2022-09-03T02:42:43;15.40;82.83
65637;DHT22;52327;42.622;23.316;2022-09-03T02:45:23;15.56;82.28
65637;DHT22;52327;42.622;23.316;2022-09-03T02:47:54;15.67;81.78
65637;DHT22;52327;42.622;23.316;2022-09-03T02:50:20;15.69;81.73
65637;DHT22;52327;42.622;23.316;2022-09-03T02:52:45;15.52;82.41
65637;DHT22;52327;42.622;23.316;2022-09-03T02:55:11;15.38;83.19
65637;DHT22;52327;42.622;23.316;2022-09-03T02:57:36;15.50;83.18
65637;DHT22;52327;42.622;23.316;2022-09-03T03:00:03;15.66;82.33
65637;DHT22;52327;42.622;23.316;2022-09-03T03:02:28;15.82;81.71
65637;DHT22;52327;42.622;23.316;2022-09-03T03:04:54;15.91;81.37
65637;DHT22;52327;42.622;23.316;2022-09-03T03:07:20;15.76;81.27
65637;DHT22;52327;42.622;23.316;2022-09-03T03:09:45;15.44;82.62
65637;DHT22;52327;42.622;23.316;2022-09-03T03:12:11;15.43;83.17
65637;DHT22;52327;42.622;23.316;2022-09-03T03:14:36;15.28;83.84
65637;DHT22;52327;42.622;23.316;2022-09-03T03:17:01;15.43;83.39
65637;DHT22;52327;42.622;23.316;2022-09-03T03:19:27;15.46;83.34
65637;DHT22;52327;42.622;23.316;2022-09-03T03:21:52;15.49;83.28
65637;DHT22;52327;42.622;23.316;2022-09-03T03:24:18;15.66;82.77
65637;DHT22;52327;42.622;23.316;2022-09-03T03:26:43;15.83;82.26
65637;DHT22;52327;42.622;23.316;2022-09-03T03:29:13;15.54;82.77
65637;DHT22;52327;42.622;23.316;2022-09-03T03:31:39;15.40;83.90
65637;DHT22;52327;42.622;23.316;2022-09-03T03:34:05;15.44;83.85
65637;DHT22;52327;42.622;23.316;2022-09-03T03:36:32;15.57;83.58
65637;DHT22;52327;42.622;23.316;2022-09-03T03:38:59;15.67;83.51
65637;DHT22;52327;42.622;23.316;2022-09-03T03:41:30;15.71;83.21
65637;DHT22;52327;42.622;23.316;2022-09-03T03:44:00;15.71;83.18
65637;DHT22;52327;42.622;23.316;2022-09-03T03:46:38;15.54;83.86
65637;DHT22;52327;42.622;23.316;2022-09-03T03:49:04;15.70;83.51
65637;DHT22;52327;42.622;23.316;2022-09-03T03:51:34;15.63;83.55
65637;DHT22;52327;42.622;23.316;2022-09-03T03:54:00;15.71;83.42
65637;DHT22;52327;42.622;23.316;2022-09-03T03:56:26;15.54;83.72
65637;DHT22;52327;42.622;23.316;2022-09-03T03:58:52;15.66;83.71
65637;DHT22;52327;42.622;23.316;2022-09-03T04:01:23;15.54;83.71
65637;DHT22;52327;42.622;23.316;2022-09-03T04:03:49;15.43;84.56
65637;DHT22;52327;42.622;23.316;2022-09-03T04:06:18;15.46;84.44
65637;DHT22;52327;42.622;23.316;2022-09-03T04:08:45;15.38;84.65
65637;DHT22;52327;42.622;23.316;2022-09-03T04:11:13;15.46;84.44
65637;DHT22;52327;42.622;23.316;2022-09-03T04:13:41;15.74;83.59
65637;DHT22;52327;42.622;23.316;2022-09-03T04:16:12;15.79;83.36
65637;DHT22;52327;42.622;23.316;2022-09-03T04:18:38;15.93;83.03
65637;DHT22;52327;42.622;23.316;2022-09-03T04:21:12;16.00;82.53
65637;DHT22;52327;42.622;23.316;2022-09-03T04:23:43;16.11;82.43
65637;DHT22;52327;42.622;23.316;2022-09-03T04:26:11;16.29;81.78
65637;DHT22;52327;42.622;23.316;2022-09-03T04:28:37;16.42;81.33
65637;DHT22;52327;42.622;23.316;2022-09-03T04:31:05;16.42;81.16
65637;DHT22;52327;42.622;23.316;2022-09-03T04:33:31;16.22;81.80
65637;DHT22;52327;42.622;23.316;2022-09-03T04:38:32;15.87;82.40
65637;DHT22;52327;42.622;23.316;2022-09-03T04:40:58;15.77;82.68
65637;DHT22;52327;42.622;23.316;2022-09-03T04:43:24;15.70;82.96
65637;DHT22;52327;42.622;23.316;2022-09-03T04:45:50;15.73;83.04
65637;DHT22;52327;42.622;23.316;2022-09-03T04:48:15;15.82;82.90
65637;DHT22;52327;42.622;23.316;2022-09-03T04:50:41;15.97;82.08
65637;DHT22;52327;42.622;23.316;2022-09-03T04:53:06;15.77;82.81
65637;DHT22;52327;42.622;23.316;2022-09-03T04:55:36;15.80;82.77
65637;DHT22;52327;42.622;23.316;2022-09-03T04:58:03;15.64;83.05
65637;DHT22;52327;42.622;23.316;2022-09-03T05:00:29;15.49;83.71
65637;DHT22;52327;42.622;23.316;2022-09-03T05:02:54;15.50;83.87
65637;DHT22;52327;42.622;23.316;2022-09-03T05:05:20;15.43;83.92
65637;DHT22;52327;42.622;23.316;2022-09-03T05:07:46;15.53;83.63
65637;DHT22;52327;42.622;23.316;2022-09-03T05:10:12;15.74;82.66
65637;DHT22;52327;42.622;23.316;2022-09-03T05:12:46;15.86;82.39
65637;DHT22;52327;42.622;23.316;2022-09-03T05:15:12;15.83;81.56
65637;DHT22;52327;42.622;23.316;2022-09-03T05:17:38;16.05;81.31
65637;DHT22;52327;42.622;23.316;2022-09-03T05:20:04;16.15;80.70
65637;DHT22;52327;42.622;23.316;2022-09-03T05:22:33;16.00;80.76
65637;DHT22;52327;42.622;23.316;2022-09-03T05:24:58;15.94;81.31
65637;DHT22;52327;42.622;23.316;2022-09-03T05:27:24;15.76;82.23
65637;DHT22;52327;42.622;23.316;2022-09-03T05:29:49;15.80;82.68
65637;DHT22;52327;42.622;23.316;2022-09-03T05:32:14;15.83;82.18
65637;DHT22;52327;42.622;23.316;2022-09-03T05:34:42;15.64;82.39
65637;DHT22;52327;42.622;23.316;2022-09-03T05:37:08;15.56;82.60
65637;DHT22;52327;42.622;23.316;2022-09-03T05:39:33;15.60;82.69
65637;DHT22;52327;42.622;23.316;2022-09-03T05:41:58;15.62;82.34
65637;DHT22;52327;42.622;23.316;2022-09-03T05:44:24;15.73;81.93
65637;DHT22;52327;42.622;23.316;2022-09-03T05:46:49;15.84;81.44
65637;DHT22;52327;42.622;23.316;2022-09-03T05:49:16;16.18;80.87
65637;DHT22;52327;42.622;23.316;2022-09-03T05:51:41;16.10;80.37
65637;DHT22;52327;42.622;23.316;2022-09-03T05:54:09;16.20;79.97
65637;DHT22;52327;42.622;23.316;2022-09-03T05:56:36;15.94;79.69
65637;DHT22;52327;42.622;23.316;2022-09-03T05:59:06;15.94;80.67
65637;DHT22;52327;42.622;23.316;2022-09-03T06:01:38;15.94;80.11
65637;DHT22;52327;42.622;23.316;2022-09-03T06:04:06;16.26;79.43
65637;DHT22;52327;42.622;23.316;2022-09-03T06:06:34;16.17;79.03
65637;DHT22;52327;42.622;23.316;2022-09-03T06:09:05;16.07;79.37
65637;DHT22;52327;42.622;23.316;2022-09-03T06:11:32;16.20;78.41
65637;DHT22;52327;42.622;23.316;2022-09-03T06:14:00;15.97;79.12
65637;DHT22;52327;42.622;23.316;2022-09-03T06:16:27;15.91;79.12
65637;DHT22;52327;42.622;23.316;2022-09-03T06:18:52;16.18;79.03
65637;DHT22;52327;42.622;23.316;2022-09-03T06:21:18;16.24;78.21
65637;DHT22;52327;42.622;23.316;2022-09-03T06:23:48;16.22;78.29
65637;DHT22;52327;42.622;23.316;2022-09-03T06:26:14;16.36;78.07
65637;DHT22;52327;42.622;23.316;2022-09-03T06:28:41;16.35;78.65
65637;DHT22;52327;42.622;23.316;2022-09-03T06:31:15;16.28;78.17
65637;DHT22;52327;42.622;23.316;2022-09-03T06:33:41;15.90;78.77
65637;DHT22;52327;42.622;23.316;2022-09-03T06:36:10;15.76;79.56
65637;DHT22;52327;42.622;23.316;2022-09-03T06:38:37;16.04;79.14
65637;DHT22;52327;42.622;23.316;2022-09-03T06:41:17;16.15;78.69
65637;DHT22;52327;42.622;23.316;2022-09-03T06:43:48;16.15;78.45
65637;DHT22;52327;42.622;23.316;2022-09-03T06:46:16;16.20;77.65
65637;DHT22;52327;42.622;23.316;2022-09-03T06:48:42;16.32;77.86
65637;DHT22;52327;42.622;23.316;2022-09-03T06:51:28;16.62;76.94
65637;DHT22;52327;42.622;23.316;2022-09-03T06:54:00;16.76;76.82
65637;DHT22;52327;42.622;23.316;2022-09-03T06:56:26;16.54;76.38
65637;DHT22;52327;42.622;23.316;2022-09-03T06:58:54;16.36;77.86
65637;DHT22;52327;42.622;23.316;2022-09-03T07:01:21;16.51;77.64
65637;DHT22;52327;42.622;23.316;2022-09-03T07:03:52;16.54;76.62
65637;DHT22;52327;42.622;23.316;2022-09-03T07:06:21;16.51;77.33
65637;DHT22;52327;42.622;23.316;2022-09-03T07:08:47;16.83;76.93
65637;DHT22;52327;42.622;23.316;2022-09-03T07:11:14;16.97;75.87
65637;DHT22;52327;42.622;23.316;2022-09-03T07:13:44;17.26;75.12
65637;DHT22;52327;42.622;23.316;2022-09-03T07:16:12;17.38;74.28
65637;DHT22;52327;42.622;23.316;2022-09-03T07:18:38;16.89;75.41
65637;DHT22;52327;42.622;23.316;2022-09-03T07:21:07;16.99;75.81
65637;DHT22;52327;42.622;23.316;2022-09-03T07:23:34;16.68;76.75
65637;DHT22;52327;42.622;23.316;2022-09-03T07:26:02;16.79;76.80
65637;DHT22;52327;42.622;23.316;2022-09-03T07:28:29;17.20;75.32
65637;DHT22;52327;42.622;23.316;2022-09-03T07:31:02;17.16;74.64
65637;DHT22;52327;42.622;23.316;2022-09-03T07:33:28;17.02;75.46
65637;DHT22;52327;42.622;23.316;2022-09-03T07:35:55;17.22;74.94
65637;DHT22;52327;42.622;23.316;2022-09-03T07:38:21;17.34;74.47
65637;DHT22;52327;42.622;23.316;2022-09-03T07:40:48;17.63;74.03
65637;DHT22;52327;42.622;23.316;2022-09-03T07:43:21;17.73;73.92
65637;DHT22;52327;42.622;23.316;2022-09-03T07:45:49;17.94;73.15
65637;DHT22;52327;42.622;23.316;2022-09-03T07:48:14;18.35;72.47
65637;DHT22;52327;42.622;23.316;2022-09-03T07:50:41;18.55;71.17
65637;DHT22;52327;42.622;23.316;2022-09-03T07:53:07;17.87;72.83
65637;DHT22;52327;42.622;23.316;2022-09-03T07:55:32;17.87;73.14
65637;DHT22;52327;42.622;23.316;2022-09-03T07:57:58;18.32;72.48
65637;DHT22;52327;42.622;23.316;2022-09-03T08:00:24;18.63;70.33
65637;DHT22;52327;42.622;23.316;2022-09-03T08:02:53;18.64;71.44
65637;DHT22;52327;42.622;23.316;2022-09-03T08:05:19;18.71;70.47
65637;DHT22;52327;42.622;23.316;2022-09-03T08:07:46;18.83;70.59
65637;DHT22;52327;42.622;23.316;2022-09-03T08:10:13;18.16;71.51
65637;DHT22;52327;42.622;23.316;2022-09-03T08:12:39;18.01;71.36
65637;DHT22;52327;42.622;23.316;2022-09-03T08:15:04;17.87;72.16
65637;DHT22;52327;42.622;23.316;2022-09-03T08:17:30;17.37;73.66
65637;DHT22;52327;42.622;23.316;2022-09-03T08:19:55;17.81;72.97
65637;DHT22;52327;42.622;23.316;2022-09-03T08:22:22;17.81;72.84
65637;DHT22;52327;42.622;23.316;2022-09-03T08:24:49;17.87;72.67
65637;DHT22;52327;42.622;23.316;2022-09-03T08:27:15;17.57;72.96
65637;DHT22;52327;42.622;23.316;2022-09-03T08:29:40;18.04;72.87
65637;DHT22;52327;42.622;23.316;2022-09-03T08:32:06;18.16;72.38
65637;DHT22;52327;42.622;23.316;2022-09-03T08:34:31;18.25;71.79
65637;DHT22;52327;42.622;23.316;2022-09-03T08:36:57;18.35;71.62
65637;DHT22;52327;42.622;23.316;2022-09-03T08:39:23;18.63;71.81
65637;DHT22;52327;42.622;23.316;2022-09-03T08:44:52;18.39;70.92
65637;DHT22;52327;42.622;23.316;2022-09-03T08:47:40;18.21;71.25
65637;DHT22;52327;42.622;23.316;2022-09-03T08:50:21;18.09;71.43
65637;DHT22;52327;42.622;23.316;2022-09-03T08:55:35;17.99;73.10
65637;DHT22;52327;42.622;23.316;2022-09-03T09:00:48;19.07;68.87
65637;DHT22;52327;42.622;23.316;2022-09-03T09:03:32;18.76;69.58
65637;DHT22;52327;42.622;23.316;2022-09-03T09:06:30;18.80;69.97
65637;DHT22;52327;42.622;23.316;2022-09-03T09:09:22;18.59;70.50
65637;DHT22;52327;42.622;23.316;2022-09-03T09:12:14;18.73;70.51
65637;DHT22;52327;42.622;23.316;2022-09-03T09:20:20;18.53;70.87
65637;DHT22;52327;42.622;23.316;2022-09-03T09:23:03;18.70;70.91
65637;DHT22;52327;42.622;23.316;2022-09-03T09:25:31;19.10;69.62
65637;DHT22;52327;42.622;23.316;2022-09-03T09:28:19;19.03;69.09
65637;DHT22;52327;42.622;23.316;2022-09-03T09:30:51;19.11;68.83
65637;DHT22;52327;42.622;23.316;2022-09-03T09:33:18;19.38;68.36
65637;DHT22;52327;42.622;23.316;2022-09-03T09:35:45;19.65;67.83
65637;DHT22;52327;42.622;23.316;2022-09-03T09:38:11;19.61;67.40
65637;DHT22;52327;42.622;23.316;2022-09-03T09:40:39;19.61;67.73
65637;DHT22;52327;42.622;23.316;2022-09-03T09:43:23;19.31;68.54
65637;DHT22;52327;42.622;23.316;2022-09-03T09:45:51;19.55;68.25
65637;DHT22;52327;42.622;23.316;2022-09-03T09:48:20;19.59;68.46
65637;DHT22;52327;42.622;23.316;2022-09-03T09:50:46;19.65;67.46
65637;DHT22;52327;42.622;23.316;2022-09-03T09:53:12;19.94;67.67
65637;DHT22;52327;42.622;23.316;2022-09-03T09:55:56;20.27;65.95
65637;DHT22;52327;42.622;23.316;2022-09-03T09:58:27;20.41;65.62
65637;DHT22;52327;42.622;23.316;2022-09-03T10:01:41;19.86;66.71
65637;DHT22;52327;42.622;23.316;2022-09-03T10:03:53;20.44;65.95
65637;DHT22;52327;42.622;23.316;2022-09-03T10:06:25;20.65;65.80
65637;DHT22;52327;42.622;23.316;2022-09-03T10:09:12;21.12;63.87
65637;DHT22;52327;42.622;23.316;2022-09-03T10:11:41;21.66;62.06
65637;DHT22;52327;42.622;23.316;2022-09-03T10:14:15;21.84;62.12
65637;DHT22;52327;42.622;23.316;2022-09-03T10:16:42;21.49;61.82
65637;DHT22;52327;42.622;23.316;2022-09-03T10:19:28;20.99;64.45
65637;DHT22;52327;42.622;23.316;2022-09-03T10:22:10;21.22;63.25
65637;DHT22;52327;42.622;23.316;2022-09-03T10:27:08;22.10;60.81
65637;DHT22;52327;42.622;23.316;2022-09-03T10:29:39;21.66;60.93
65637;DHT22;52327;42.622;23.316;2022-09-03T10:32:32;21.86;61.64
65637;DHT22;52327;42.622;23.316;2022-09-03T10:37:52;22.61;59.72
65637;DHT22;52327;42.622;23.316;2022-09-03T10:40:41;22.58;58.45
65637;DHT22;52327;42.622;23.316;2022-09-03T10:46:01;21.89;61.90
65637;DHT22;52327;42.622;23.316;2022-09-03T10:51:26;22.66;59.14
65637;DHT22;52327;42.622;23.316;2022-09-03T10:56:35;22.85;57.70
65637;DHT22;52327;42.622;23.316;2022-09-03T11:02:25;22.17;60.74
65637;DHT22;52327;42.622;23.316;2022-09-03T11:07:27;21.97;59.94
65637;DHT22;52327;42.622;23.316;2022-09-03T11:10:30;22.17;60.01
65637;DHT22;52327;42.622;23.316;2022-09-03T11:13:25;21.11;62.12
65637;DHT22;52327;42.622;23.316;2022-09-03T11:16:14;20.44;64.39
65637;DHT22;52327;42.622;23.316;2022-09-03T11:18:43;20.65;64.23
65637;DHT22;52327;42.622;23.316;2022-09-03T11:21:13;20.88;63.24
65637;DHT22;52327;42.622;23.316;2022-09-03T11:23:45;20.88;63.63
65637;DHT22;52327;42.622;23.316;2022-09-03T11:26:15;20.99;63.63
65637;DHT22;52327;42.622;23.316;2022-09-03T11:36:30;20.92;62.35
65637;DHT22;52327;42.622;23.316;2022-09-03T11:38:57;20.85;63.15
65637;DHT22;52327;42.622;23.316;2022-09-03T11:41:25;21.08;63.38
65637;DHT22;52327;42.622;23.316;2022-09-03T11:43:52;21.29;61.55
65637;DHT22;52327;42.622;23.316;2022-09-03T11:49:22;21.36;60.24
65637;DHT22;52327;42.622;23.316;2022-09-03T11:51:57;21.38;60.63
65637;DHT22;52327;42.622;23.316;2022-09-03T11:54:25;21.65;60.68
65637;DHT22;52327;42.622;23.316;2022-09-03T11:57:05;21.97;58.86
65637;DHT22;52327;42.622;23.316;2022-09-03T11:59:34;21.98;57.61
65637;DHT22;52327;42.622;23.316;2022-09-03T12:02:03;22.13;58.18
65637;DHT22;52327;42.622;23.316;2022-09-03T12:18:22;29.28;39.82
65637;DHT22;52327;42.622;23.316;2022-09-03T12:23:27;28.98;40.36
65637;DHT22;52327;42.622;23.316;2022-09-03T12:25:53;29.11;40.06
65637;DHT22;52327;42.622;23.316;2022-09-03T12:28:21;30.49;36.97
65637;DHT22;52327;42.622;23.316;2022-09-03T12:30:50;30.52;36.80
65637;DHT22;52327;42.622;23.316;2022-09-03T12:33:22;32.08;34.85
65637;DHT22;52327;42.622;23.316;2022-09-03T12:36:00;30.37;37.33
65637;DHT22;52327;42.622;23.316;2022-09-03T12:38:27;31.53;35.27
65637;DHT22;52327;42.622;23.316;2022-09-03T12:40:54;33.10;33.18
65637;DHT22;52327;42.622;23.316;2022-09-03T12:43:19;33.21;32.71
65637;DHT22;52327;42.622;23.316;2022-09-03T12:45:50;33.74;32.21
65637;DHT22;52327;42.622;23.316;2022-09-03T12:48:18;32.55;33.53
65637;DHT22;52327;42.622;23.316;2022-09-03T12:50:45;32.90;32.78
65637;DHT22;52327;42.622;23.316;2022-09-03T12:53:13;32.58;33.18
65637;DHT22;52327;42.622;23.316;2022-09-03T12:55:48;33.44;32.17
65637;DHT22;52327;42.622;23.316;2022-09-03T13:01:03;34.48;30.78
65637;DHT22;52327;42.622;23.316;2022-09-03T13:06:15;33.41;31.57
65637;DHT22;52327;42.622;23.316;2022-09-03T13:08:57;31.56;34.89
65637;DHT22;52327;42.622;23.316;2022-09-03T13:11:24;32.82;32.94
65637;DHT22;52327;42.622;23.316;2022-09-03T13:13:59;32.66;33.18
65637;DHT22;52327;42.622;23.316;2022-09-03T13:16:36;32.00;33.94
65637;DHT22;52327;42.622;23.316;2022-09-03T13:24:43;33.80;31.16
65637;DHT22;52327;42.622;23.316;2022-09-03T13:27:27;35.68;29.31
65637;DHT22;52327;42.622;23.316;2022-09-03T13:29:59;35.26;28.61
65637;DHT22;52327;42.622;23.316;2022-09-03T13:35:04;35.61;29.05
65637;DHT22;52327;42.622;23.316;2022-09-03T13:40:10;35.62;27.97
65637;DHT22;52327;42.622;23.316;2022-09-03T13:42:42;33.33;30.72
65637;DHT22;52327;42.622;23.316;2022-09-03T13:45:34;32.17;33.20
65637;DHT22;52327;42.622;23.316;2022-09-03T13:48:12;33.71;31.29
65637;DHT22;52327;42.622;23.316;2022-09-03T13:53:49;34.74;29.32
65637;DHT22;52327;42.622;23.316;2022-09-03T13:56:31;33.20;31.33
65637;DHT22;52327;42.622;23.316;2022-09-03T13:59:10;32.42;31.95
65637;DHT22;52327;42.622;23.316;2022-09-03T14:07:20;33.61;30.96
65637;DHT22;52327;42.622;23.316;2022-09-03T14:09:53;32.31;32.36
65637;DHT22;52327;42.622;23.316;2022-09-03T14:15:22;28.53;39.20
65637;DHT22;52327;42.622;23.316;2022-09-03T14:20:42;28.02;40.86
65637;DHT22;52327;42.622;23.316;2022-09-03T14:25:59;28.00;40.76
65637;DHT22;52327;42.622;23.316;2022-09-03T14:28:38;27.62;41.92
65637;DHT22;52327;42.622;23.316;2022-09-03T14:34:20;25.82;45.18
65637;DHT22;52327;42.622;23.316;2022-09-03T14:36:54;25.77;45.29
65637;DHT22;52327;42.622;23.316;2022-09-03T14:39:29;26.09;44.14
65637;DHT22;52327;42.622;23.316;2022-09-03T14:45:17;24.90;47.61
65637;DHT22;52327;42.622;23.316;2022-09-03T14:58:58;23.74;50.86
65637;DHT22;52327;42.622;23.316;2022-09-03T15:01:27;23.82;50.91
65637;DHT22;52327;42.622;23.316;2022-09-03T15:04:14;23.80;50.07
65637;DHT22;52327;42.622;23.316;2022-09-03T15:15:09;23.02;51.93
65637;DHT22;52327;42.622;23.316;2022-09-03T15:20:49;22.37;53.52
65637;DHT22;52327;42.622;23.316;2022-09-03T15:33:47;21.80;57.58
65637;DHT22;52327;42.622;23.316;2022-09-03T15:36:35;21.53;58.87
65637;DHT22;52327;42.622;23.316;2022-09-03T15:39:10;21.39;59.40
65637;DHT22;52327;42.622;23.316;2022-09-03T15:41:56;21.26;59.92
65637;DHT22;52327;42.622;23.316;2022-09-03T15:44:24;21.14;59.64
65637;DHT22;52327;42.622;23.316;2022-09-03T15:46:57;21.04;60.39
65637;DHT22;52327;42.622;23.316;2022-09-03T15:52:31;20.90;60.61
65637;DHT22;52327;42.622;23.316;2022-09-03T15:55:36;20.64;61.27
65637;DHT22;52327;42.622;23.316;2022-09-03T16:00:52;20.32;62.83
65637;DHT22;52327;42.622;23.316;2022-09-03T16:03:32;20.22;62.91
65637;DHT22;52327;42.622;23.316;2022-09-03T16:06:04;20.22;63.08
65637;DHT22;52327;42.622;23.316;2022-09-03T16:11:33;20.10;63.31
65637;DHT22;52327;42.622;23.316;2022-09-03T16:17:12;19.97;63.71
65637;DHT22;52327;42.622;23.316;2022-09-03T16:19:47;20.00;63.25
65637;DHT22;52327;42.622;23.316;2022-09-03T16:25:21;19.92;63.48
65637;DHT22;52327;42.622;23.316;2022-09-03T16:27:54;19.89;63.57
65637;DHT22;52327;42.622;23.316;2022-09-03T16:33:03;19.83;63.57
65637;DHT22;52327;42.622;23.316;2022-09-03T16:44:11;19.78;63.85
65637;DHT22;52327;42.622;23.316;2022-09-03T16:55:06;19.69;63.94
65637;DHT22;52327;42.622;23.316;2022-09-03T17:00:11;19.55;64.04
65637;DHT22;52327;42.622;23.316;2022-09-03T17:03:06;19.65;64.32
65637;DHT22;52327;42.622;23.316;2022-09-03T17:11:28;19.49;63.45
65637;DHT22;52327;42.622;23.316;2022-09-03T17:14:17;19.68;63.28
65637;DHT22;52327;42.622;23.316;2022-09-03T17:19:34;19.86;62.65
65637;DHT22;52327;42.622;23.316;2022-09-03T17:22:28;19.83;63.38
65637;DHT22;52327;42.622;23.316;2022-09-03T17:24:57;19.97;63.11
65637;DHT22;52327;42.622;23.316;2022-09-03T17:36:11;20.03;67.28
65637;DHT22;52327;42.622;23.316;2022-09-03T17:41:53;19.86;68.15
65637;DHT22;52327;42.622;23.316;2022-09-03T17:44:36;19.68;68.64
65637;DHT22;52327;42.622;23.316;2022-09-03T17:49:55;19.48;69.82
65637;DHT22;52327;42.622;23.316;2022-09-03T17:52:38;19.42;69.30
65637;DHT22;52327;42.622;23.316;2022-09-03T17:55:23;19.24;70.14
65637;DHT22;52327;42.622;23.316;2022-09-03T18:00:37;19.14;70.38
65637;DHT22;52327;42.622;23.316;2022-09-03T18:03:12;19.21;70.12
65637;DHT22;52327;42.622;23.316;2022-09-03T18:05:56;19.11;70.22
65637;DHT22;52327;42.622;23.316;2022-09-03T18:09:09;18.93;70.86
65637;DHT22;52327;42.622;23.316;2022-09-03T18:11:38;18.97;71.26
65637;DHT22;52327;42.622;23.316;2022-09-03T18:14:22;18.80;71.50
65637;DHT22;52327;42.622;23.316;2022-09-03T18:17:24;18.55;72.36
65637;DHT22;52327;42.622;23.316;2022-09-03T18:19:48;18.43;73.05
65637;DHT22;52327;42.622;23.316;2022-09-03T18:25:44;17.99;74.49
65637;DHT22;52327;42.622;23.316;2022-09-03T18:31:34;17.57;75.88
65637;DHT22;52327;42.622;23.316;2022-09-03T18:34:21;17.36;76.60
65637;DHT22;52327;42.622;23.316;2022-09-03T18:37:08;17.34;76.76
65637;DHT22;52327;42.622;23.316;2022-09-03T18:39:52;17.36;76.57
65637;DHT22;52327;42.622;23.316;2022-09-03T18:46:01;17.24;76.48
65637;DHT22;52327;42.622;23.316;2022-09-03T18:48:50;16.99;76.98
65637;DHT22;52327;42.622;23.316;2022-09-03T18:51:50;16.71;78.16
65637;DHT22;52327;42.622;23.316;2022-09-03T18:55:19;16.52;78.43
65637;DHT22;52327;42.622;23.316;2022-09-03T19:04:05;16.41;78.01
65637;DHT22;52327;42.622;23.316;2022-09-03T19:07:11;16.40;78.02
65637;DHT22;52327;42.622;23.316;2022-09-03T19:13:34;16.34;78.02
65637;DHT22;52327;42.622;23.316;2022-09-03T19:22:46;16.15;77.96
65637;DHT22;52327;42.622;23.316;2022-09-03T19:25:30;16.13;78.27
65637;DHT22;52327;42.622;23.316;2022-09-03T19:28:20;16.22;77.80
65637;DHT22;52327;42.622;23.316;2022-09-03T19:37:39;16.14;78.33
65637;DHT22;52327;42.622;23.316;2022-09-03T19:46:48;15.64;79.75
65637;DHT22;52327;42.622;23.316;2022-09-03T19:52:52;15.54;80.58
65637;DHT22;52327;42.622;23.316;2022-09-03T19:55:56;15.50;80.92
65637;DHT22;52327;42.622;23.316;2022-09-03T19:59:02;15.53;80.88
65637;DHT22;52327;42.622;23.316;2022-09-03T20:01:47;15.52;80.79
65637;DHT22;52327;42.622;23.316;2022-09-03T20:04:38;15.50;80.61
65637;DHT22;52327;42.622;23.316;2022-09-03T20:07:24;15.43;80.72
65637;DHT22;52327;42.622;23.316;2022-09-03T20:10:10;15.47;80.30
65637;DHT22;52327;42.622;23.316;2022-09-03T20:12:50;15.46;80.14
65637;DHT22;52327;42.622;23.316;2022-09-03T20:15:18;15.57;79.78
65637;DHT22;52327;42.622;23.316;2022-09-03T20:20:57;15.36;80.51
65637;DHT22;52327;42.622;23.316;2022-09-03T20:29:46;15.52;80.01
65637;DHT22;52327;42.622;23.316;2022-09-03T20:46:05;14.99;81.77
65637;DHT22;52327;42.622;23.316;2022-09-03T20:51:30;14.96;81.95
65637;DHT22;52327;42.622;23.316;2022-09-03T20:54:44;14.98;81.92
65637;DHT22;52327;42.622;23.316;2022-09-03T20:59:37;14.92;81.96
65637;DHT22;52327;42.622;23.316;2022-09-03T21:10:51;14.70;82.84
65637;DHT22;52327;42.622;23.316;2022-09-03T21:13:35;14.61;83.15
65637;DHT22;52327;42.622;23.316;2022-09-03T21:16:18;14.57;83.36
65637;DHT22;52327;42.622;23.316;2022-09-03T21:24:59;14.54;83.60
65637;DHT22;52327;42.622;23.316;2022-09-03T21:27:31;14.60;83.35